Kettle River, Minnesota
Current Conditions -  °F | °C
As of 12:32 AM on Friday 31 Oct 2014 (Local Time) from KMZH Reporting Station
Scattered Clouds Scattered Clouds  
Wind Chill: 20°   Ceiling: Unl
Heat Index: 30°   Visibility: 10mi
Dew Point: 18°   Wind: 13mph
Humidity: 60%   Direction: 350°N
Pressure: 30.36"   Gusts: 24mph
Location:  46.49°N, 92.88°W
Report Text: KMZH 310532Z AUTO 35011G21KT 10SM SCT034 M01/M08 A3036 RMK AO2
Loading
Personal Weather Stations






























Interactive Weather Map
Tropical Storm Tracking
New forecast layout! Learn more

10-Day Weather Forecast

Advertisements
Track Severe Weather on mobile